Time,TemperatureF,DewpointF,PressureIn,WindDirection,WindDirectionDegrees,WindSpeedMPH,WindSpeedGustMPH,Humidity,HourlyPrecipIn,Conditions,Clouds,dailyrainin,SolarRadiationWatts/m^2,SoftwareType,DateUTC
2013-01-10 00:00:00,66.8,64.7,30.01,North,355,2.0,3.0,93,0.00,,,0.00,0,Wunderground v.1.15,2013-01-10 10:00:00,
2013-01-10 00:10:00,66.6,64.5,30.01,North,355,1.0,1.0,93,0.00,,,0.00,0,Wunderground v.1.15,2013-01-10 10:10:00,
2013-01-10 00:15:00,66.4,64.3,30.01,North,355,0.0,4.0,93,0.00,,,0.00,0,Wunderground v.1.15,2013-01-10 10:15:00,
2013-01-10 00:20:00,66.2,64.1,30.01,North,355,1.0,3.0,93,0.00,,,0.00,0,Wunderground v.1.15,2013-01-10 10:20:00,
2013-01-10 00:25:00,65.9,64.1,30.01,North,355,1.0,3.0,94,0.00,,,0.00,0,Wunderground v.1.15,2013-01-10 10:25:00,
2013-01-10 00:30:00,65.7,63.9,30.01,North,355,1.0,1.0,94,0.00,,,0.00,0,Wunderground v.1.15,2013-01-10 10:30:00,
2013-01-10 00:40:00,65.2,63.4,30.01,North,355,0.0,0.0,94,0.00,,,0.00,0,Wunderground v.1.15,2013-01-10 10:40:00,
2013-01-10 00:45:00,64.8,63.3,30.01,North,355,0.0,0.0,95,0.00,,,0.00,0,Wunderground v.1.15,2013-01-10 10:45:00,
2013-01-10 00:50:00,64.6,63.4,30.01,North,355,1.0,3.0,96,0.00,,,0.00,0,Wunderground v.1.15,2013-01-10 10:50:00,
2013-01-10 00:55:00,65.0,63.8,30.01,WNW,292,3.0,3.0,96,0.00,,,0.00,0,Wunderground v.1.15,2013-01-10 10:55:00,
2013-01-10 01:00:00,64.8,63.3,30.01,NNW,327,3.0,5.0,95,0.00,,,0.00,0,Wunderground v.1.15,2013-01-10 11:00:00,
2013-01-10 01:10:00,64.5,63.0,30.00,NNW,327,2.0,4.0,95,0.00,,,0.00,0,Wunderground v.1.15,2013-01-10 11:10:00,
2013-01-10 01:15:00,64.4,62.9,30.01,NNW,327,3.0,4.0,95,0.00,,,0.00,0,Wunderground v.1.15,2013-01-10 11:15:00,
2013-01-10 01:20:00,64.2,62.7,30.00,NNW,327,3.0,3.0,95,0.00,,,0.00,0,Wunderground v.1.15,2013-01-10 11:20:00,
2013-01-10 01:25:00,64.0,62.5,30.00,NNW,327,3.0,5.0,95,0.00,,,0.00,0,Wunderground v.1.15,2013-01-10 11:25:00,
2013-01-10 01:30:00,63.9,62.4,30.00,NNW,327,3.0,3.0,95,0.00,,,0.00,0,Wunderground v.1.15,2013-01-10 11:30:00,
2013-01-10 01:40:00,63.7,62.5,29.99,NNW,327,3.0,3.0,96,0.00,,,0.00,0,Wunderground v.1.15,2013-01-10 11:40:00,
2013-01-10 01:50:00,63.4,61.9,29.99,NW,325,3.0,3.0,95,0.00,,,0.00,0,Wunderground v.1.15,2013-01-10 11:50:00,
2013-01-10 01:55:00,63.3,62.1,29.99,NNW,327,3.0,4.0,96,0.00,,,0.00,0,Wunderground v.1.15,2013-01-10 11:55:00,
2013-01-10 02:00:00,63.2,61.7,29.99,NNW,327,3.0,3.0,95,0.00,,,0.00,0,Wunderground v.1.15,2013-01-10 12:00:00,
2013-01-10 02:10:00,62.9,61.4,29.98,NNW,327,2.0,2.0,95,0.00,,,0.00,0,Wunderground v.1.15,2013-01-10 12:10:00,
2013-01-10 02:15:00,62.8,61.3,29.98,NW,326,1.0,2.0,95,0.00,,,0.00,0,Wunderground v.1.15,2013-01-10 12:15:00,
2013-01-10 02:20:00,62.8,61.3,29.98,NW,326,1.0,3.0,95,0.00,,,0.00,0,Wunderground v.1.15,2013-01-10 12:20:00,
2013-01-10 02:25:00,62.9,61.4,29.98,NW,326,2.0,3.0,95,0.00,,,0.00,0,Wunderground v.1.15,2013-01-10 12:25:00,
2013-01-10 02:30:00,62.9,61.4,29.98,NW,326,2.0,2.0,95,0.00,,,0.00,0,Wunderground v.1.15,2013-01-10 12:30:00,
2013-01-10 02:35:00,62.8,61.0,29.98,NW,326,2.0,3.0,94,0.00,,,0.00,0,Wunderground v.1.15,2013-01-10 12:35:00,
2013-01-10 02:40:00,62.8,61.0,29.98,NNW,327,2.0,2.0,94,0.00,,,0.00,0,Wunderground v.1.15,2013-01-10 12:40:00,
2013-01-10 02:45:00,62.7,60.9,29.97,NNW,327,3.0,3.0,94,0.00,,,0.00,0,Wunderground v.1.15,2013-01-10 12:45:00,
2013-01-10 02:50:00,62.7,60.6,29.97,NNW,327,2.0,2.0,93,0.00,,,0.00,0,Wunderground v.1.15,2013-01-10 12:50:00,
2013-01-10 03:00:00,62.5,60.4,29.98,NNW,327,2.0,2.0,93,0.00,,,0.00,0,Wunderground v.1.15,2013-01-10 13:00:00,
2013-01-10 03:10:00,62.6,60.8,29.98,NW,316,3.0,5.0,94,0.00,,,0.00,0,Wunderground v.1.15,2013-01-10 13:10:00,
2013-01-10 03:15:00,62.7,60.6,29.98,NNW,334,3.0,5.0,93,0.00,,,0.00,0,Wunderground v.1.15,2013-01-10 13:15:00,
2013-01-10 03:20:00,62.4,60.3,29.98,NNW,334,2.0,2.0,93,0.00,,,0.00,0,Wunderground v.1.15,2013-01-10 13:20:00,
2013-01-10 03:25:00,62.4,60.3,29.98,NNW,333,2.0,3.0,93,0.00,,,0.00,0,Wunderground v.1.15,2013-01-10 13:25:00,
2013-01-10 03:35:00,62.0,60.0,29.98,NNW,333,2.0,3.0,93,0.00,,,0.00,0,Wunderground v.1.15,2013-01-10 13:35:00,
2013-01-10 03:40:00,61.7,59.7,29.97,NNW,333,1.0,1.0,93,0.00,,,0.00,0,Wunderground v.1.15,2013-01-10 13:40:00,
2013-01-10 03:45:00,61.5,59.8,29.98,NNW,333,1.0,1.0,94,0.00,,,0.00,0,Wunderground v.1.15,2013-01-10 13:45:00,
2013-01-10 03:50:00,61.3,59.6,29.98,NNW,333,0.0,0.0,94,0.00,,,0.00,0,Wunderground v.1.15,2013-01-10 13:50:00,
2013-01-10 03:55:00,61.3,59.6,29.97,NNW,333,1.0,3.0,94,0.00,,,0.00,0,Wunderground v.1.15,2013-01-10 13:55:00,
2013-01-10 04:00:00,61.7,60.0,29.98,NNW,333,2.0,3.0,94,0.00,,,0.00,0,Wunderground v.1.15,2013-01-10 14:00:00,
2013-01-10 04:10:00,61.9,59.9,29.97,NNW,333,3.0,3.0,93,0.00,,,0.00,0,Wunderground v.1.15,2013-01-10 14:10:00,
2013-01-10 04:15:00,62.0,59.6,29.97,NNW,333,3.0,3.0,92,0.00,,,0.00,0,Wunderground v.1.15,2013-01-10 14:15:00,
2013-01-10 04:20:00,61.6,59.6,29.97,NNW,333,2.0,3.0,93,0.00,,,0.00,0,Wunderground v.1.15,2013-01-10 14:20:00,
2013-01-10 04:25:00,61.5,59.5,29.97,NNW,333,2.0,3.0,93,0.00,,,0.00,0,Wunderground v.1.15,2013-01-10 14:25:00,
2013-01-10 04:30:00,61.3,59.3,29.98,NNW,333,1.0,1.0,93,0.00,,,0.00,0,Wunderground v.1.15,2013-01-10 14:30:00,
2013-01-10 04:35:00,61.2,59.2,29.97,NNW,333,1.0,1.0,93,0.00,,,0.00,0,Wunderground v.1.15,2013-01-10 14:35:00,
2013-01-10 04:40:00,61.1,59.1,29.97,NNW,333,0.0,2.0,93,0.00,,,0.00,0,Wunderground v.1.15,2013-01-10 14:40:00,
2013-01-10 04:45:00,61.2,59.2,29.97,NNW,333,1.0,3.0,93,0.00,,,0.00,0,Wunderground v.1.15,2013-01-10 14:45:00,
2013-01-10 04:55:00,61.2,59.2,29.98,NNW,333,3.0,3.0,93,0.00,,,0.00,0,Wunderground v.1.15,2013-01-10 14:55:00,
2013-01-10 05:00:00,62.2,59.8,29.97,NNW,344,3.0,3.0,92,0.00,,,0.00,0,Wunderground v.1.15,2013-01-10 15:00:00,
2013-01-10 05:10:00,62.3,59.3,29.98,NNW,344,2.0,3.0,90,0.00,,,0.00,0,Wunderground v.1.15,2013-01-10 15:10:00,
2013-01-10 05:15:00,62.3,59.3,29.98,NW,320,4.0,4.0,90,0.00,,,0.00,0,Wunderground v.1.15,2013-01-10 15:15:00,
2013-01-10 05:20:00,63.2,59.9,29.98,WNW,300,4.0,5.0,89,0.00,,,0.00,0,Wunderground v.1.15,2013-01-10 15:20:00,
2013-01-10 05:30:00,63.3,59.4,29.98,North,349,4.0,4.0,87,0.00,,,0.00,0,Wunderground v.1.15,2013-01-10 15:30:00,
2013-01-10 05:40:00,62.6,59.3,29.98,NNW,346,3.0,3.0,89,0.00,,,0.00,0,Wunderground v.1.15,2013-01-10 15:40:00,
2013-01-10 05:45:00,62.4,59.1,29.98,NNW,346,3.0,3.0,89,0.00,,,0.00,0,Wunderground v.1.15,2013-01-10 15:45:00,
2013-01-10 05:50:00,62.5,58.9,29.98,NNW,346,3.0,3.0,88,0.00,,,0.00,0,Wunderground v.1.15,2013-01-10 15:50:00,
2013-01-10 05:55:00,63.0,59.1,29.98,NNW,346,3.0,3.0,87,0.00,,,0.00,0,Wunderground v.1.15,2013-01-10 15:55:00,
2013-01-10 06:00:00,64.0,59.4,29.98,NNW,342,3.0,4.0,85,0.00,,,0.00,0,Wunderground v.1.15,2013-01-10 16:00:00,
2013-01-10 06:10:00,63.3,59.0,29.99,NNW,342,2.0,2.0,86,0.00,,,0.00,0,Wunderground v.1.15,2013-01-10 16:10:00,
2013-01-10 06:15:00,62.5,58.9,29.99,NNW,339,2.0,3.0,88,0.00,,,0.00,0,Wunderground v.1.15,2013-01-10 16:15:00,
2013-01-10 06:20:00,62.6,59.0,29.99,NNW,339,2.0,3.0,88,0.00,,,0.00,0,Wunderground v.1.15,2013-01-10 16:20:00,
2013-01-10 06:25:00,62.2,58.9,29.99,NNW,339,2.0,3.0,89,0.00,,,0.00,0,Wunderground v.1.15,2013-01-10 16:25:00,
2013-01-10 06:30:00,63.0,59.4,29.99,NNW,340,3.0,3.0,88,0.00,,,0.00,0,Wunderground v.1.15,2013-01-10 16:30:00,
2013-01-10 06:35:00,63.5,59.2,30.00,NNW,341,2.0,3.0,86,0.00,,,0.00,0,Wunderground v.1.15,2013-01-10 16:35:00,
2013-01-10 06:45:00,64.3,59.4,30.00,NNW,336,4.0,6.0,84,0.00,,,0.00,0,Wunderground v.1.15,2013-01-10 16:45:00,
2013-01-10 06:55:00,64.3,59.0,30.01,NNW,345,4.0,5.0,83,0.00,,,0.00,0,Wunderground v.1.15,2013-01-10 16:55:00,
2013-01-10 07:00:00,64.2,58.9,30.01,NNW,344,3.0,3.0,83,0.00,,,0.00,5,Wunderground v.1.15,2013-01-10 17:00:00,
2013-01-10 07:10:00,63.4,58.8,30.01,NNW,344,4.0,4.0,85,0.00,,,0.00,11,Wunderground v.1.15,2013-01-10 17:10:00,
2013-01-10 07:20:00,63.3,59.0,30.01,North,355,4.0,10.0,86,0.00,,,0.00,19,Wunderground v.1.15,2013-01-10 17:20:00,
2013-01-10 07:25:00,64.5,59.6,30.01,North,355,4.0,10.0,84,0.00,,,0.00,28,Wunderground v.1.15,2013-01-10 17:25:00,
2013-01-10 07:30:00,65.4,60.1,30.01,North,355,4.0,4.0,83,0.00,,,0.00,40,Wunderground v.1.15,2013-01-10 17:30:00,
2013-01-10 07:35:00,66.0,60.3,30.01,North,360,3.0,4.0,82,0.00,,,0.00,58,Wunderground v.1.15,2013-01-10 17:35:00,
2013-01-10 07:40:00,66.6,60.6,30.01,North,360,3.0,3.0,81,0.00,,,0.00,72,Wunderground v.1.15,2013-01-10 17:40:00,
2013-01-10 07:45:00,67.2,60.1,30.02,North,5,3.0,5.0,78,0.00,,,0.00,91,Wunderground v.1.15,2013-01-10 17:45:00,
2013-01-10 07:50:00,67.6,60.1,30.01,NNW,341,5.0,5.0,77,0.00,,,0.00,111,Wunderground v.1.15,2013-01-10 17:50:00,
2013-01-10 08:00:00,68.0,59.8,30.02,NNE,22,3.0,3.0,75,0.00,,,0.00,155,Wunderground v.1.15,2013-01-10 18:00:00,
2013-01-10 08:10:00,68.8,60.6,30.02,NNE,22,0.0,4.0,75,0.00,,,0.00,195,Wunderground v.1.15,2013-01-10 18:10:00,
2013-01-10 08:15:00,69.4,61.1,30.02,NNE,22,2.0,4.0,75,0.00,,,0.00,220,Wunderground v.1.15,2013-01-10 18:15:00,
2013-01-10 08:20:00,70.0,61.3,30.02,NNE,22,3.0,3.0,74,0.00,,,0.00,246,Wunderground v.1.15,2013-01-10 18:20:00,
2013-01-10 08:25:00,70.6,61.9,30.03,NNE,22,1.0,3.0,74,0.00,,,0.00,264,Wunderground v.1.15,2013-01-10 18:25:00,
2013-01-10 08:35:00,72.1,62.2,30.02,NNE,17,3.0,4.0,71,0.00,,,0.00,294,Wunderground v.1.15,2013-01-10 18:35:00,
2013-01-10 08:40:00,72.6,62.7,30.03,NNE,17,2.0,2.0,71,0.00,,,0.00,320,Wunderground v.1.15,2013-01-10 18:40:00,
2013-01-10 08:45:00,73.3,63.3,30.03,NNE,18,0.0,3.0,71,0.00,,,0.00,330,Wunderground v.1.15,2013-01-10 18:45:00,
2013-01-10 08:50:00,73.9,63.5,30.03,NE,49,2.0,2.0,70,0.00,,,0.00,353,Wunderground v.1.15,2013-01-10 18:50:00,
2013-01-10 08:55:00,74.5,65.3,30.03,East,86,3.0,4.0,73,0.00,,,0.00,371,Wunderground v.1.15,2013-01-10 18:55:00,
2013-01-10 09:00:00,75.0,65.8,30.03,NNE,32,5.0,5.0,73,0.00,,,0.00,392,Wunderground v.1.15,2013-01-10 19:00:00,
2013-01-10 09:10:00,75.5,65.4,30.03,ENE,66,7.0,9.0,71,0.00,,,0.00,424,Wunderground v.1.15,2013-01-10 19:10:00,
2013-01-10 09:15:00,75.7,65.6,30.04,ENE,71,8.0,9.0,71,0.00,,,0.00,436,Wunderground v.1.15,2013-01-10 19:15:00,
2013-01-10 09:20:00,75.7,66.0,30.04,East,84,8.0,8.0,72,0.00,,,0.00,455,Wunderground v.1.15,2013-01-10 19:20:00,
2013-01-10 09:25:00,75.8,66.1,30.03,East,90,8.0,10.0,72,0.00,,,0.00,476,Wunderground v.1.15,2013-01-10 19:25:00,
2013-01-10 09:30:00,76.2,65.7,30.04,ENE,58,8.0,8.0,70,0.00,,,0.00,490,Wunderground v.1.15,2013-01-10 19:30:00,
2013-01-10 09:35:00,76.0,66.3,30.04,ENE,60,8.0,10.0,72,0.00,,,0.00,503,Wunderground v.1.15,2013-01-10 19:35:00,
2013-01-10 09:40:00,75.6,65.9,30.04,East,84,9.0,9.0,72,0.00,,,0.00,522,Wunderground v.1.15,2013-01-10 19:40:00,
2013-01-10 09:50:00,75.5,67.0,30.03,East,90,10.0,12.0,75,0.00,,,0.00,547,Wunderground v.1.15,2013-01-10 19:50:00,
2013-01-10 09:55:00,75.8,67.7,30.03,ESE,119,9.0,12.0,76,0.00,,,0.00,563,Wunderground v.1.15,2013-01-10 19:55:00,
2013-01-10 10:00:00,75.9,67.0,30.04,SE,130,9.0,9.0,74,0.00,,,0.00,575,Wunderground v.1.15,2013-01-10 20:00:00,
2013-01-10 10:10:00,76.2,66.9,30.03,ENE,59,9.0,9.0,73,0.00,,,0.00,617,Wunderground v.1.15,2013-01-10 20:10:00,
2013-01-10 10:15:00,76.5,66.8,30.03,ENE,75,9.0,9.0,72,0.00,,,0.00,686,Wunderground v.1.15,2013-01-10 20:15:00,
2013-01-10 10:20:00,76.7,67.0,30.02,East,88,8.0,16.0,72,0.00,,,0.00,661,Wunderground v.1.15,2013-01-10 20:20:00,
2013-01-10 10:25:00,77.0,66.0,30.03,NE,35,8.0,16.0,69,0.00,,,0.00,645,Wunderground v.1.15,2013-01-10 20:25:00,
2013-01-10 10:35:00,76.9,63.8,30.02,ENE,77,10.0,16.0,64,0.00,,,0.00,666,Wunderground v.1.15,2013-01-10 20:35:00,
2013-01-10 10:40:00,77.0,64.3,30.02,North,350,10.0,12.0,65,0.00,,,0.00,684,Wunderground v.1.15,2013-01-10 20:40:00,
2013-01-10 10:45:00,77.1,65.3,30.01,SE,132,10.0,13.0,67,0.00,,,0.00,698,Wunderground v.1.15,2013-01-10 20:45:00,
2013-01-10 10:50:00,77.1,65.3,30.01,ESE,109,10.0,10.0,67,0.00,,,0.00,717,Wunderground v.1.15,2013-01-10 20:50:00,
2013-01-10 10:55:00,77.4,65.6,30.01,ENE,68,10.0,12.0,67,0.00,,,0.00,728,Wunderground v.1.15,2013-01-10 20:55:00,
2013-01-10 11:00:00,77.9,65.6,30.01,NE,38,8.0,8.0,66,0.00,,,0.00,728,Wunderground v.1.15,2013-01-10 21:00:00,
2013-01-10 11:10:00,77.9,64.7,30.00,NE,36,9.0,9.0,64,0.00,,,0.00,740,Wunderground v.1.15,2013-01-10 21:10:00,
2013-01-10 11:15:00,78.2,65.5,30.00,NNE,15,9.0,10.0,65,0.00,,,0.00,751,Wunderground v.1.15,2013-01-10 21:15:00,
2013-01-10 11:20:00,78.3,65.6,30.00,East,85,9.0,9.0,65,0.00,,,0.00,779,Wunderground v.1.15,2013-01-10 21:20:00,
2013-01-10 11:26:00,78.5,64.9,30.00,ENE,67,9.0,14.0,63,0.00,,,0.00,765,Wunderground v.1.15,2013-01-10 21:26:00,
2013-01-10 11:35:00,78.0,67.0,29.99,East,98,11.0,13.0,69,0.00,,,0.00,773,Wunderground v.1.15,2013-01-10 21:35:00,
2013-01-10 11:40:00,77.7,68.4,29.99,ESE,123,10.0,16.0,73,0.00,,,0.00,788,Wunderground v.1.15,2013-01-10 21:40:00,
2013-01-10 11:45:00,77.2,67.5,29.99,ESE,112,10.0,16.0,72,0.00,,,0.00,780,Wunderground v.1.15,2013-01-10 21:45:00,
2013-01-10 11:50:00,77.4,68.1,29.99,ENE,77,11.0,11.0,73,0.00,,,0.00,782,Wunderground v.1.15,2013-01-10 21:50:00,
2013-01-10 11:55:00,77.2,67.5,29.99,SE,124,11.0,12.0,72,0.00,,,0.00,789,Wunderground v.1.15,2013-01-10 21:55:00,
2013-01-10 12:00:00,76.8,67.9,29.98,SE,133,11.0,14.0,74,0.00,,,0.00,788,Wunderground v.1.15,2013-01-10 22:00:00,
2013-01-10 12:10:00,76.1,68.4,29.98,ESE,123,12.0,14.0,77,0.00,,,0.00,809,Wunderground v.1.15,2013-01-10 22:10:00,
2013-01-10 12:16:00,76.1,68.4,29.98,East,99,11.0,14.0,77,0.00,,,0.00,802,Wunderground v.1.15,2013-01-10 22:16:00,
2013-01-10 12:25:00,76.1,68.4,29.97,East,98,13.0,15.0,77,0.00,,,0.00,796,Wunderground v.1.15,2013-01-10 22:25:00,
2013-01-10 12:30:00,76.2,68.5,29.96,East,89,12.0,12.0,77,0.00,,,0.00,802,Wunderground v.1.15,2013-01-10 22:30:00,
2013-01-10 12:40:00,77.1,67.8,29.96,SE,142,11.0,16.0,73,0.00,,,0.00,833,Wunderground v.1.15,2013-01-10 22:40:00,
2013-01-10 12:45:00,78.1,65.8,29.95,ENE,76,11.0,16.0,66,0.00,,,0.00,812,Wunderground v.1.15,2013-01-10 22:45:00,
2013-01-10 12:50:00,78.4,66.5,29.95,ENE,76,13.0,13.0,67,0.00,,,0.00,800,Wunderground v.1.15,2013-01-10 22:50:00,
2013-01-10 12:55:00,78.0,67.0,29.94,ESE,111,13.0,15.0,69,0.00,,,0.00,809,Wunderground v.1.15,2013-01-10 22:55:00,
2013-01-10 13:00:00,77.5,67.8,29.95,East,95,13.0,13.0,72,0.00,,,0.00,803,Wunderground v.1.15,2013-01-10 23:00:00,
2013-01-10 13:10:00,77.2,67.5,29.94,ENE,71,13.0,14.0,72,0.00,,,0.00,784,Wunderground v.1.15,2013-01-10 23:10:00,
2013-01-10 13:15:00,77.1,67.8,29.94,East,88,13.0,14.0,73,0.00,,,0.00,780,Wunderground v.1.15,2013-01-10 23:15:00,
2013-01-10 13:20:00,77.0,67.7,29.93,SE,142,12.0,14.0,73,0.00,,,0.00,795,Wunderground v.1.15,2013-01-10 23:20:00,
2013-01-10 13:30:00,76.9,67.2,29.93,East,88,12.0,12.0,72,0.00,,,0.00,766,Wunderground v.1.15,2013-01-10 23:30:00,
2013-01-10 13:40:00,76.7,68.6,29.94,ESE,103,13.0,13.0,76,0.00,,,0.00,731,Wunderground v.1.15,2013-01-10 23:40:00,
2013-01-10 13:50:00,76.4,67.5,29.92,ENE,70,12.0,12.0,74,0.00,,,0.00,745,Wunderground v.1.15,2013-01-10 23:50:00,
2013-01-10 13:55:00,76.5,68.0,29.92,ESE,115,14.0,14.0,75,0.00,,,0.00,649,Wunderground v.1.15,2013-01-10 23:55:00,
2013-01-10 14:00:00,76.0,69.0,29.93,ENE,76,13.0,13.0,79,0.00,,,0.00,722,Wunderground v.1.15,2013-01-11 00:00:00,
2013-01-10 14:10:00,75.0,68.8,29.93,SSE,150,13.0,13.0,81,0.00,,,0.00,708,Wunderground v.1.15,2013-01-11 00:10:00,
2013-01-10 14:15:00,75.5,68.5,29.92,SE,129,12.0,17.0,79,0.00,,,0.00,680,Wunderground v.1.15,2013-01-11 00:15:00,
2013-01-10 14:20:00,76.1,68.4,29.92,ENE,69,12.0,16.0,77,0.00,,,0.00,679,Wunderground v.1.15,2013-01-11 00:20:00,
2013-01-10 14:30:00,76.4,67.5,29.92,ENE,63,16.0,16.0,74,0.00,,,0.00,684,Wunderground v.1.15,2013-01-11 00:30:00,
2013-01-10 14:35:00,76.7,67.8,29.91,ENE,57,14.0,24.0,74,0.00,,,0.00,663,Wunderground v.1.15,2013-01-11 00:35:00,
2013-01-10 14:40:00,76.5,66.4,29.91,ENE,78,13.0,15.0,71,0.00,,,0.00,647,Wunderground v.1.15,2013-01-11 00:40:00,
2013-01-10 14:45:00,76.8,67.5,29.91,East,94,13.0,15.0,73,0.00,,,0.00,643,Wunderground v.1.15,2013-01-11 00:45:00,
2013-01-10 14:50:00,76.7,67.0,29.91,ENE,71,13.0,13.0,72,0.00,,,0.00,613,Wunderground v.1.15,2013-01-11 00:50:00,
2013-01-10 14:55:00,76.8,66.7,29.91,ESE,117,14.0,14.0,71,0.00,,,0.00,613,Wunderground v.1.15,2013-01-11 00:55:00,
2013-01-10 15:00:00,77.5,67.4,29.91,SSE,153,11.0,11.0,71,0.00,,,0.00,601,Wunderground v.1.15,2013-01-11 01:00:00,
2013-01-10 15:10:00,77.0,66.9,29.91,SE,128,11.0,18.0,71,0.00,,,0.00,582,Wunderground v.1.15,2013-01-11 01:10:00,
2013-01-10 15:15:00,77.7,63.2,29.92,ENE,73,11.0,18.0,61,0.00,,,0.00,582,Wunderground v.1.15,2013-01-11 01:15:00,
2013-01-10 15:20:00,77.8,63.3,29.92,East,86,12.0,12.0,61,0.00,,,0.00,540,Wunderground v.1.15,2013-01-11 01:20:00,
2013-01-10 15:30:00,77.7,66.7,29.92,ESE,109,9.0,13.0,69,0.00,,,0.00,524,Wunderground v.1.15,2013-01-11 01:30:00,
2013-01-10 15:35:00,77.9,65.6,29.92,ENE,60,8.0,13.0,66,0.00,,,0.00,510,Wunderground v.1.15,2013-01-11 01:35:00,
2013-01-10 15:40:00,78.1,64.5,29.92,East,90,9.0,9.0,63,0.00,,,0.00,114,Wunderground v.1.15,2013-01-11 01:40:00,
2013-01-10 15:50:00,77.6,66.2,29.93,SE,130,9.0,9.0,68,0.00,,,0.00,503,Wunderground v.1.15,2013-01-11 01:50:00,
2013-01-10 15:55:00,77.2,66.7,29.93,ESE,118,9.0,12.0,70,0.00,,,0.00,457,Wunderground v.1.15,2013-01-11 01:55:00,
2013-01-10 16:00:00,76.3,68.2,29.93,SSE,155,9.0,10.0,76,0.00,,,0.00,471,Wunderground v.1.15,2013-01-11 02:00:00,
2013-01-10 16:10:00,75.8,66.5,29.93,SE,138,10.0,10.0,73,0.00,,,0.00,74,Wunderground v.1.15,2013-01-11 02:10:00,
2013-01-10 16:20:00,76.0,63.4,29.93,East,88,7.0,8.0,65,0.00,,,0.00,359,Wunderground v.1.15,2013-01-11 02:20:00,
2013-01-10 16:25:00,76.5,66.0,29.93,ESE,122,8.0,11.0,70,0.00,,,0.00,318,Wunderground v.1.15,2013-01-11 02:25:00,
2013-01-10 16:30:00,75.9,67.4,29.94,ENE,66,10.0,14.0,75,0.00,,,0.00,304,Wunderground v.1.15,2013-01-11 02:30:00,
2013-01-10 16:35:00,75.5,67.0,29.94,ESE,108,10.0,14.0,75,0.00,,,0.00,267,Wunderground v.1.15,2013-01-11 02:35:00,
2013-01-10 16:40:00,75.6,65.9,29.94,ENE,68,7.0,7.0,72,0.00,,,0.00,257,Wunderground v.1.15,2013-01-11 02:40:00,
2013-01-10 16:50:00,75.6,64.3,29.94,ESE,105,9.0,9.0,68,0.00,,,0.00,51,Wunderground v.1.15,2013-01-11 02:50:00,
2013-01-10 16:55:00,75.4,64.5,29.94,ESE,121,9.0,9.0,69,0.00,,,0.00,197,Wunderground v.1.15,2013-01-11 02:55:00,
2013-01-10 17:00:00,75.5,64.6,29.94,ESE,115,8.0,8.0,69,0.00,,,0.00,54,Wunderground v.1.15,2013-01-11 03:00:00,
2013-01-10 17:10:00,75.2,65.6,29.95,ENE,64,6.0,8.0,72,0.00,,,0.00,51,Wunderground v.1.15,2013-01-11 03:10:00,
2013-01-10 17:15:00,74.9,64.9,29.95,East,79,7.0,8.0,71,0.00,,,0.00,77,Wunderground v.1.15,2013-01-11 03:15:00,
2013-01-10 17:20:00,74.9,64.0,29.95,East,100,8.0,13.0,69,0.00,,,0.00,51,Wunderground v.1.15,2013-01-11 03:20:00,
2013-01-10 17:25:00,74.8,64.4,29.95,East,101,8.0,13.0,70,0.00,,,0.00,35,Wunderground v.1.15,2013-01-11 03:25:00,
2013-01-10 17:30:00,74.8,63.9,29.95,ENE,59,7.0,7.0,69,0.00,,,0.00,35,Wunderground v.1.15,2013-01-11 03:30:00,
2013-01-10 17:35:00,74.8,63.9,29.96,NNE,24,7.0,12.0,69,0.00,,,0.00,35,Wunderground v.1.15,2013-01-11 03:35:00,
2013-01-10 17:40:00,74.7,62.6,29.96,North,5,7.0,7.0,66,0.00,,,0.00,35,Wunderground v.1.15,2013-01-11 03:40:00,
2013-01-10 17:50:00,74.5,62.4,29.96,NE,35,2.0,3.0,66,0.00,,,0.00,16,Wunderground v.1.15,2013-01-11 03:50:00,
2013-01-10 17:55:00,74.3,62.2,29.96,North,5,2.0,7.0,66,0.00,,,0.00,11,Wunderground v.1.15,2013-01-11 03:55:00,
2013-01-10 18:00:00,74.0,61.9,29.96,NE,37,4.0,4.0,66,0.00,,,0.00,5,Wunderground v.1.15,2013-01-11 04:00:00,
2013-01-10 18:10:00,73.6,62.0,29.97,North,11,3.0,6.0,67,0.00,,,0.00,0,Wunderground v.1.15,2013-01-11 04:10:00,
2013-01-10 18:15:00,73.3,61.7,29.96,NNE,25,4.0,6.0,67,0.00,,,0.00,0,Wunderground v.1.15,2013-01-11 04:15:00,
2013-01-10 18:20:00,73.0,61.8,29.96,NNE,25,2.0,4.0,68,0.00,,,0.00,0,Wunderground v.1.15,2013-01-11 04:20:00,
2013-01-10 18:25:00,72.6,61.0,29.96,NNE,25,1.0,4.0,67,0.00,,,0.00,0,Wunderground v.1.15,2013-01-11 04:25:00,
2013-01-10 18:30:00,72.3,61.1,29.96,NNE,25,1.0,1.0,68,0.00,,,0.00,0,Wunderground v.1.15,2013-01-11 04:30:00,
2013-01-10 18:35:00,72.0,60.9,29.97,North,355,1.0,2.0,68,0.00,,,0.00,0,Wunderground v.1.15,2013-01-11 04:35:00,
2013-01-10 18:40:00,71.7,61.0,29.97,North,355,1.0,1.0,69,0.00,,,0.00,0,Wunderground v.1.15,2013-01-11 04:40:00,
2013-01-10 18:50:00,70.6,61.1,29.97,North,355,1.0,2.0,72,0.00,,,0.00,0,Wunderground v.1.15,2013-01-11 04:50:00,
2013-01-10 18:55:00,70.7,60.8,29.97,NE,46,2.0,4.0,71,0.00,,,0.00,0,Wunderground v.1.15,2013-01-11 04:55:00,
2013-01-10 19:02:00,71.1,60.8,29.97,NE,51,3.0,3.0,70,0.00,,,0.00,0,Wunderground v.1.15,2013-01-11 05:02:00,
2013-01-10 19:05:00,71.2,60.9,29.98,NE,51,2.0,3.0,70,0.00,,,0.00,0,Wunderground v.1.15,2013-01-11 05:05:00,
2013-01-10 19:10:00,71.4,61.1,29.98,NE,51,1.0,3.0,70,0.00,,,0.00,0,Wunderground v.1.15,2013-01-11 05:10:00,
2013-01-10 19:15:00,71.6,60.9,29.98,NE,47,2.0,3.0,69,0.00,,,0.00,0,Wunderground v.1.15,2013-01-11 05:15:00,
2013-01-10 19:20:00,71.3,61.0,29.98,NE,36,2.0,2.0,70,0.00,,,0.00,0,Wunderground v.1.15,2013-01-11 05:20:00,
2013-01-10 19:25:00,71.1,60.8,29.98,WSW,243,3.0,3.0,70,0.00,,,0.00,0,Wunderground v.1.15,2013-01-11 05:25:00,
2013-01-10 19:30:00,70.4,60.9,29.98,WSW,243,2.0,3.0,72,0.00,,,0.00,0,Wunderground v.1.15,2013-01-11 05:30:00,
2013-01-10 19:35:00,69.4,60.4,29.97,WSW,243,2.0,3.0,73,0.00,,,0.00,0,Wunderground v.1.15,2013-01-11 05:35:00,
2013-01-10 19:40:00,68.7,60.1,29.98,WSW,243,2.0,2.0,74,0.00,,,0.00,0,Wunderground v.1.15,2013-01-11 05:40:00,
2013-01-10 19:45:00,68.1,60.2,29.97,WSW,243,1.0,2.0,76,0.00,,,0.00,0,Wunderground v.1.15,2013-01-11 05:45:00,
2013-01-10 19:50:00,67.6,60.1,29.97,WSW,243,0.0,0.0,77,0.00,,,0.00,0,Wunderground v.1.15,2013-01-11 05:50:00,
2013-01-10 20:00:00,66.8,59.7,29.97,WSW,243,0.0,0.0,78,0.00,,,0.00,0,Wunderground v.1.15,2013-01-11 06:00:00,
2013-01-10 20:10:00,67.2,59.7,29.98,WSW,256,3.0,3.0,77,0.00,,,0.00,0,Wunderground v.1.15,2013-01-11 06:10:00,
2013-01-10 20:15:00,67.8,60.0,29.98,WSW,256,3.0,3.0,76,0.00,,,0.00,0,Wunderground v.1.15,2013-01-11 06:15:00,
2013-01-10 20:20:00,67.4,59.6,29.98,WSW,256,3.0,3.0,76,0.00,,,0.00,0,Wunderground v.1.15,2013-01-11 06:20:00,
2013-01-10 20:25:00,67.1,59.6,29.98,West,263,3.0,4.0,77,0.00,,,0.00,0,Wunderground v.1.15,2013-01-11 06:25:00,
2013-01-10 20:30:00,67.2,59.4,29.98,WNW,300,3.0,3.0,76,0.00,,,0.00,0,Wunderground v.1.15,2013-01-11 06:30:00,
2013-01-10 20:40:00,66.8,59.4,29.98,North,355,3.0,4.0,77,0.00,,,0.00,0,Wunderground v.1.15,2013-01-11 06:40:00,
2013-01-10 20:45:00,66.8,59.0,29.98,NNW,338,4.0,7.0,76,0.00,,,0.00,0,Wunderground v.1.15,2013-01-11 06:45:00,
2013-01-10 20:50:00,67.1,58.9,29.98,NNW,333,5.0,5.0,75,0.00,,,0.00,0,Wunderground v.1.15,2013-01-11 06:50:00,
2013-01-10 20:55:00,67.5,59.3,29.98,NNW,333,4.0,5.0,75,0.00,,,0.00,0,Wunderground v.1.15,2013-01-11 06:55:00,
2013-01-10 21:00:00,67.1,58.9,29.98,NNW,334,2.0,2.0,75,0.00,,,0.00,0,Wunderground v.1.15,2013-01-11 07:00:00,
2013-01-10 21:10:00,65.5,58.8,29.98,NNW,334,2.0,4.0,79,0.00,,,0.00,0,Wunderground v.1.15,2013-01-11 07:10:00,
2013-01-10 21:15:00,65.1,58.4,29.98,NNW,334,2.0,4.0,79,0.00,,,0.00,0,Wunderground v.1.15,2013-01-11 07:15:00,
2013-01-10 21:20:00,64.9,58.2,29.98,NNW,334,2.0,2.0,79,0.00,,,0.00,0,Wunderground v.1.15,2013-01-11 07:20:00,
2013-01-10 21:30:00,64.8,58.1,29.98,NNW,334,2.0,3.0,79,0.00,,,0.00,0,Wunderground v.1.15,2013-01-11 07:30:00,
2013-01-10 21:35:00,64.9,58.2,29.98,NW,316,2.0,3.0,79,0.00,,,0.00,0,Wunderground v.1.15,2013-01-11 07:35:00,
2013-01-10 21:40:00,64.4,58.1,29.98,NW,316,2.0,2.0,80,0.00,,,0.00,0,Wunderground v.1.15,2013-01-11 07:40:00,
2013-01-10 21:45:00,64.3,58.0,29.97,NW,316,1.0,4.0,80,0.00,,,0.00,0,Wunderground v.1.15,2013-01-11 07:45:00,
2013-01-10 21:50:00,64.1,57.8,29.97,NW,316,1.0,4.0,80,0.00,,,0.00,0,Wunderground v.1.15,2013-01-11 07:50:00,
2013-01-10 21:55:00,64.1,58.1,29.97,NW,316,2.0,4.0,81,0.00,,,0.00,0,Wunderground v.1.15,2013-01-11 07:55:00,
2013-01-10 22:00:00,64.0,58.1,29.97,NW,316,2.0,2.0,81,0.00,,,0.00,0,Wunderground v.1.15,2013-01-11 08:00:00,
2013-01-10 22:10:00,64.1,57.8,29.97,NW,317,2.0,3.0,80,0.00,,,0.00,0,Wunderground v.1.15,2013-01-11 08:10:00,
2013-01-10 22:15:00,64.1,57.8,29.97,NW,317,3.0,3.0,80,0.00,,,0.00,0,Wunderground v.1.15,2013-01-11 08:15:00,
2013-01-10 22:25:00,64.4,57.7,29.97,NW,317,1.0,2.0,79,0.00,,,0.00,0,Wunderground v.1.15,2013-01-11 08:25:00,
2013-01-10 22:30:00,64.0,57.4,29.97,NW,318,2.0,2.0,79,0.00,,,0.00,0,Wunderground v.1.15,2013-01-11 08:30:00,
2013-01-10 22:35:00,63.6,57.3,29.97,NW,318,1.0,2.0,80,0.00,,,0.00,0,Wunderground v.1.15,2013-01-11 08:35:00,
2013-01-10 22:40:00,63.4,57.1,29.97,NW,321,2.0,4.0,80,0.00,,,0.00,0,Wunderground v.1.15,2013-01-11 08:40:00,
2013-01-10 22:45:00,63.9,57.3,29.96,NW,322,3.0,4.0,79,0.00,,,0.00,0,Wunderground v.1.15,2013-01-11 08:45:00,
2013-01-10 22:50:00,63.5,57.2,29.96,NW,321,2.0,2.0,80,0.00,,,0.00,0,Wunderground v.1.15,2013-01-11 08:50:00,
2013-01-10 22:55:00,63.4,57.1,29.96,NW,322,1.0,2.0,80,0.00,,,0.00,0,Wunderground v.1.15,2013-01-11 08:55:00,
2013-01-10 23:00:00,63.3,57.0,29.96,NW,321,2.0,3.0,80,0.00,,,0.00,0,Wunderground v.1.15,2013-01-11 09:00:00,
2013-01-10 23:10:00,63.3,56.7,29.95,NW,321,3.0,4.0,79,0.00,,,0.00,0,Wunderground v.1.15,2013-01-11 09:10:00,
2013-01-10 23:15:00,63.7,56.7,29.95,NNW,336,3.0,5.0,78,0.00,,,0.00,0,Wunderground v.1.15,2013-01-11 09:15:00,
2013-01-10 23:20:00,63.6,56.6,29.95,NNW,336,4.0,4.0,78,0.00,,,0.00,0,Wunderground v.1.15,2013-01-11 09:20:00,
2013-01-10 23:25:00,63.6,56.6,29.95,NNW,336,4.0,4.0,78,0.00,,,0.00,0,Wunderground v.1.15,2013-01-11 09:25:00,
2013-01-10 23:30:00,63.2,56.6,29.95,NNW,336,4.0,4.0,79,0.00,,,0.00,0,Wunderground v.1.15,2013-01-11 09:30:00,
2013-01-10 23:35:00,63.6,56.6,29.94,NNW,336,4.0,4.0,78,0.00,,,0.00,0,Wunderground v.1.15,2013-01-11 09:35:00,
2013-01-10 23:45:00,65.0,56.9,29.95,NNW,339,4.0,7.0,75,0.00,,,0.00,0,Wunderground v.1.15,2013-01-11 09:45:00,
2013-01-10 23:50:00,64.5,56.8,29.95,NNW,339,3.0,3.0,76,0.00,,,0.00,0,Wunderground v.1.15,2013-01-11 09:50:00,
2013-01-10 23:55:00,64.1,56.7,29.95,NNW,339,3.0,4.0,77,0.00,,,0.00,0,Wunderground v.1.15,2013-01-11 09:55:00,